Time;durP1;ratioP1;P1;durP2;ratioP2;P2;SDS_P1;SDS_P2;PMS_P1;PMS_P2;Temp;Humidity;BMP_temperature;BMP_pressure;BME280_temperature;BME280_humidity;BME280_pressure;Samples;Min_cycle;Max_cycle;Signal;HPM_P1;HPM_P2
2023/06/22 00:02:25;;;;;;;40.72;36.30;;;18.70;99.90;;;;;;4903238;29;20092;-71
2023/06/22 00:04:51;;;;;;;41.90;36.97;;;18.60;99.90;;;;;;4891112;29;20040;-72
2023/06/22 00:07:17;;;;;;;42.35;36.28;;;18.60;99.90;;;;;;4901473;29;20044;-72
2023/06/22 00:09:42;;;;;;;48.55;40.38;;;18.60;99.90;;;;;;4884727;29;20053;-71
2023/06/22 00:12:08;;;;;;;50.25;40.42;;;18.50;99.90;;;;;;4886154;29;20056;-72
2023/06/22 00:14:34;;;;;;;46.15;39.58;;;18.50;99.90;;;;;;4883350;29;20044;-71
2023/06/22 00:16:59;;;;;;;46.13;38.75;;;18.50;99.90;;;;;;4886082;29;20044;-72
2023/06/22 00:19:25;;;;;;;41.58;37.00;;;18.50;99.90;;;;;;4885666;29;20064;-72
2023/06/22 00:21:54;;;;;;;43.80;37.10;;;18.50;99.90;;;;;;4904676;29;20170;-72
2023/06/22 00:24:20;;;;;;;39.85;35.33;;;18.40;99.90;;;;;;4885352;29;20497;-71
2023/06/22 00:26:47;;;;;;;43.25;38.30;;;18.30;99.90;;;;;;4892732;29;20057;-71
2023/06/22 00:29:13;;;;;;;38.63;34.38;;;18.40;99.90;;;;;;4914368;29;20060;-72
2023/06/22 00:31:39;;;;;;;38.42;34.03;;;18.40;99.90;;;;;;4902616;29;20063;-72
2023/06/22 00:34:08;;;;;;;39.72;35.03;;;18.30;99.90;;;;;;4895707;29;20224;-72
2023/06/22 00:36:34;;;;;;;39.50;34.70;;;18.30;99.90;;;;;;4888279;29;20049;-72
2023/06/22 00:39:00;;;;;;;53.53;40.20;;;18.30;99.90;;;;;;4893377;29;20083;-71
2023/06/22 00:41:28;;;;;;;51.17;41.88;;;18.20;99.90;;;;;;4883174;29;20052;-71
2023/06/22 00:43:54;;;;;;;46.22;39.38;;;18.00;99.90;;;;;;4902226;29;20076;-72
2023/06/22 00:46:22;;;;;;;41.60;36.25;;;18.00;99.90;;;;;;4911584;29;20052;-71
2023/06/22 00:48:48;;;;;;;43.45;36.65;;;18.00;99.90;;;;;;4905079;29;20080;-72
2023/06/22 00:51:14;;;;;;;46.25;38.53;;;18.00;99.90;;;;;;4910945;29;20052;-71
2023/06/22 00:53:40;;;;;;;48.40;38.97;;;18.00;99.90;;;;;;4888275;29;20139;-71
2023/06/22 00:56:08;;;;;;;48.72;37.38;;;18.00;99.90;;;;;;4911666;29;20059;-71
2023/06/22 00:58:36;;;;;;;50.75;40.10;;;17.90;99.90;;;;;;4900922;29;20466;-71
2023/06/22 01:01:02;;;;;;;43.28;35.95;;;17.70;99.90;;;;;;4903563;29;20040;-72
2023/06/22 01:03:28;;;;;;;41.13;35.25;;;17.60;99.90;;;;;;4902682;29;20066;-71
2023/06/22 01:06:02;;;;;;;48.08;37.05;;;17.50;99.90;;;;;;4883100;29;20107;-71
2023/06/22 01:08:47;;;;;;;42.00;35.40;;;17.50;99.90;;;;;;4888044;29;20063;-71
2023/06/22 01:11:17;;;;;;;41.47;34.22;;;17.50;99.90;;;;;;4903485;29;20064;-71
2023/06/22 01:14:20;;;;;;;40.95;34.53;;;17.50;99.90;;;;;;4883103;29;20104;-71
2023/06/22 01:16:47;;;;;;;41.70;34.30;;;17.50;99.90;;;;;;4899914;29;20080;-71
2023/06/22 01:19:30;;;;;;;47.65;36.50;;;17.40;99.90;;;;;;4884993;29;20056;-71
2023/06/22 01:21:58;;;;;;;40.35;32.88;;;17.40;99.90;;;;;;4900964;29;20108;-72
2023/06/22 01:24:30;;;;;;;46.42;34.95;;;17.40;99.90;;;;;;4907332;29;20055;-72
2023/06/22 01:27:00;;;;;;;;;;;17.30;99.90;;;;;;4882422;29;20068;-72
2023/06/22 01:29:27;;;;;;;47.28;34.90;;;17.30;99.90;;;;;;4904280;29;20400;-72
2023/06/22 01:31:56;;;;;;;43.15;32.15;;;17.20;99.90;;;;;;4899418;29;20056;-72
2023/06/22 01:34:23;;;;;;;47.00;35.05;;;17.30;99.90;;;;;;4892941;29;20052;-72
2023/06/22 01:36:50;;;;;;;48.67;35.50;;;17.20;99.90;;;;;;4911079;29;20036;-72
2023/06/22 01:39:16;;;;;;;43.78;34.45;;;17.20;99.90;;;;;;4887374;29;20047;-72
2023/06/22 01:41:43;;;;;;;43.22;34.42;;;17.10;99.90;;;;;;4883798;29;20049;-70
2023/06/22 01:44:10;;;;;;;47.03;34.42;;;17.10;99.90;;;;;;4887193;29;20044;-70
2023/06/22 01:46:37;;;;;;;43.70;34.22;;;17.10;99.90;;;;;;4907485;29;20706;-70
2023/06/22 01:49:04;;;;;;;45.08;34.15;;;17.00;99.90;;;;;;4908226;29;20139;-71
2023/06/22 01:51:30;;;;;;;40.67;32.03;;;17.00;99.90;;;;;;4909804;29;20365;-71
2023/06/22 01:53:56;;;;;;;46.75;33.17;;;17.00;99.90;;;;;;4893018;29;20593;-70
2023/06/22 01:56:22;;;;;;;46.20;35.38;;;16.90;99.90;;;;;;4902574;29;20060;-71
2023/06/22 01:58:57;;;;;;;39.47;32.30;;;17.00;99.90;;;;;;4906417;29;20044;-71
2023/06/22 02:01:30;;;;;;;37.83;29.95;;;17.00;99.90;;;;;;4910415;29;20036;-71
2023/06/22 02:04:26;;;;;;;41.03;31.67;;;16.90;99.90;;;;;;4886659;29;20421;-71
2023/06/22 02:06:57;;;;;;;38.67;30.50;;;17.00;99.90;;;;;;4902197;29;20063;-71
2023/06/22 02:09:25;;;;;;;38.20;29.30;;;17.00;99.90;;;;;;4900771;29;20064;-71
2023/06/22 02:11:55;;;;;;;36.75;30.25;;;16.90;99.90;;;;;;4911443;29;20044;-70
2023/06/22 02:14:21;;;;;;;41.70;31.17;;;17.00;99.90;;;;;;4895010;29;20064;-70
2023/06/22 02:16:47;;;;;;;38.15;30.42;;;17.00;99.90;;;;;;4910944;29;20387;-71
2023/06/22 02:19:18;;;;;;;38.92;30.50;;;17.10;99.90;;;;;;4885876;29;20055;-71
2023/06/22 02:21:44;;;;;;;39.88;31.38;;;17.00;99.90;;;;;;4907447;29;20052;-71
2023/06/22 02:24:10;;;;;;;44.38;32.90;;;17.00;99.90;;;;;;4902362;29;20048;-71
2023/06/22 02:26:38;;;;;;;40.30;31.55;;;17.00;99.90;;;;;;4909868;29;20044;-71
2023/06/22 02:29:04;;;;;;;37.83;30.00;;;17.00;99.90;;;;;;4903110;29;20049;-69
2023/06/22 02:31:30;;;;;;;39.20;31.48;;;17.00;99.90;;;;;;4888010;29;20246;-71
2023/06/22 02:33:59;;;;;;;37.75;30.30;;;16.90;99.90;;;;;;4886168;29;20080;-71
2023/06/22 02:36:26;;;;;;;37.83;30.27;;;17.00;99.90;;;;;;4906963;29;20043;-71
2023/06/22 02:38:54;;;;;;;42.45;32.00;;;17.00;99.90;;;;;;4903364;29;20157;-71
2023/06/22 02:41:20;;;;;;;42.33;32.45;;;16.90;99.90;;;;;;4915616;29;20107;-71
2023/06/22 02:43:46;;;;;;;44.10;33.30;;;16.80;99.90;;;;;;4910251;29;20057;-71
2023/06/22 02:46:13;;;;;;;43.42;32.85;;;16.80;99.90;;;;;;4906316;29;20096;-71
2023/06/22 02:48:42;;;;;;;42.30;32.45;;;16.60;99.90;;;;;;4888705;29;20476;-71
2023/06/22 02:51:08;;;;;;;47.97;34.45;;;16.60;99.90;;;;;;4911610;29;20044;-71
2023/06/22 02:53:34;;;;;;;53.05;36.95;;;16.50;99.90;;;;;;4888540;29;20118;-71
2023/06/22 02:56:05;;;;;;;59.35;42.55;;;16.40;99.90;;;;;;4904049;29;20055;-71
2023/06/22 02:58:38;;;;;;;49.15;36.08;;;16.40;99.90;;;;;;4903401;29;20055;-70
2023/06/22 03:01:05;;;;;;;62.38;44.30;;;16.30;99.90;;;;;;4910285;29;20044;-71
2023/06/22 03:03:31;;;;;;;66.35;50.50;;;16.30;99.90;;;;;;4885437;29;20048;-70
2023/06/22 03:05:56;;;;;;;58.35;46.60;;;16.30;99.90;;;;;;4886721;29;20135;-71
2023/06/22 03:08:22;;;;;;;67.95;49.83;;;16.40;99.90;;;;;;4906546;29;20119;-71
2023/06/22 03:10:48;;;;;;;68.90;47.55;;;16.40;99.90;;;;;;4884895;29;20052;-70
2023/06/22 03:13:13;;;;;;;74.45;50.47;;;16.40;99.90;;;;;;4890091;29;20104;-71
2023/06/22 03:15:39;;;;;;;67.22;49.47;;;16.30;99.90;;;;;;4885731;29;20052;-71
2023/06/22 03:18:05;;;;;;;66.78;50.05;;;16.30;99.90;;;;;;4913158;29;20706;-71
2023/06/22 03:20:33;;;;;;;68.47;50.78;;;16.30;99.90;;;;;;4891859;29;20499;-71
2023/06/22 03:22:59;;;;;;;67.53;49.80;;;16.30;99.90;;;;;;4902022;29;20058;-71
2023/06/22 03:25:25;;;;;;;65.32;49.15;;;16.30;99.90;;;;;;4902657;29;20048;-71
2023/06/22 03:27:51;;;;;;;75.20;53.58;;;16.30;99.90;;;;;;4901364;29;20071;-70
2023/06/22 03:30:16;;;;;;;68.47;52.42;;;16.40;99.90;;;;;;4912311;29;20048;-71
2023/06/22 03:32:43;;;;;;;71.35;53.65;;;16.40;99.90;;;;;;4889203;29;20059;-71
2023/06/22 03:35:09;;;;;;;75.22;54.00;;;16.40;99.90;;;;;;4910418;29;20040;-71
2023/06/22 03:37:34;;;;;;;69.68;52.75;;;16.50;99.90;;;;;;4906699;29;20047;-71
2023/06/22 03:40:00;;;;;;;68.93;52.30;;;16.50;99.90;;;;;;4902502;29;20052;-71
2023/06/22 03:42:26;;;;;;;77.53;55.13;;;16.50;99.90;;;;;;4907284;29;20142;-71
2023/06/22 03:44:52;;;;;;;74.28;53.75;;;16.50;99.90;;;;;;4884299;29;20060;-71
2023/06/22 03:47:18;;;;;;;68.65;51.45;;;16.50;99.90;;;;;;4886976;29;21361;-71
2023/06/22 03:49:44;;;;;;;71.90;52.97;;;16.50;99.90;;;;;;4884814;29;20057;-71
2023/06/22 03:52:10;;;;;;;68.93;50.95;;;16.50;99.90;;;;;;4908612;29;20307;-71
2023/06/22 03:54:36;;;;;;;67.85;50.53;;;16.50;99.90;;;;;;4913921;29;20075;-70
2023/06/22 03:57:02;;;;;;;73.97;54.05;;;16.50;99.90;;;;;;4883754;29;20402;-70
2023/06/22 03:59:28;;;;;;;68.78;50.55;;;16.50;99.90;;;;;;4884246;29;20112;-71
2023/06/22 04:01:54;;;;;;;61.40;47.03;;;16.40;99.90;;;;;;4889165;29;20068;-71
2023/06/22 04:04:20;;;;;;;65.13;48.58;;;16.40;99.90;;;;;;4907233;29;20048;-71
2023/06/22 04:06:46;;;;;;;67.50;49.08;;;16.40;99.90;;;;;;4901778;29;20036;-71
2023/06/22 04:09:12;;;;;;;64.55;48.03;;;16.40;99.90;;;;;;4910412;29;20130;-71
2023/06/22 04:11:38;;;;;;;67.13;50.25;;;16.40;99.90;;;;;;4909357;29;20071;-71
2023/06/22 04:14:03;;;;;;;63.58;46.83;;;16.40;99.90;;;;;;4893269;29;20051;-72
2023/06/22 04:16:29;;;;;;;62.58;46.97;;;16.40;99.90;;;;;;4883556;29;20056;-70
2023/06/22 04:18:55;;;;;;;61.50;46.22;;;16.40;99.90;;;;;;4906842;29;20045;-70
2023/06/22 04:21:20;;;;;;;61.53;46.95;;;16.50;99.90;;;;;;4901401;29;20083;-71
2023/06/22 04:23:46;;;;;;;66.97;48.80;;;16.50;99.90;;;;;;4901875;29;20086;-71
2023/06/22 04:26:14;;;;;;;60.03;46.55;;;16.50;99.90;;;;;;4906045;29;20045;-71
2023/06/22 04:28:40;;;;;;;71.90;50.85;;;16.50;99.90;;;;;;4909572;29;20494;-71
2023/06/22 04:31:05;;;;;;;66.57;46.78;;;16.50;99.90;;;;;;4905813;29;20378;-71
2023/06/22 04:33:31;;;;;;;62.22;46.85;;;16.50;99.90;;;;;;4915693;29;20059;-71
2023/06/22 04:35:58;;;;;;;61.22;46.95;;;16.50;99.90;;;;;;4888135;29;20052;-71
2023/06/22 04:38:25;;;;;;;68.45;48.05;;;16.50;99.90;;;;;;4901487;29;20067;-71
2023/06/22 04:40:51;;;;;;;71.13;49.85;;;16.60;99.90;;;;;;4907911;29;20048;-71
2023/06/22 04:43:17;;;;;;;71.65;51.40;;;16.50;99.90;;;;;;4901856;29;20089;-71
2023/06/22 04:45:42;;;;;;;67.75;49.50;;;16.50;99.90;;;;;;4901301;29;20478;-71
2023/06/22 04:48:09;;;;;;;63.35;49.17;;;16.60;99.90;;;;;;4883316;29;20088;-71
2023/06/22 04:50:38;;;;;;;62.20;47.60;;;16.70;99.90;;;;;;4893007;29;20044;-71
2023/06/22 04:53:05;;;;;;;63.55;47.45;;;16.90;99.90;;;;;;4906432;29;20067;-71
2023/06/22 04:55:32;;;;;;;60.88;47.80;;;16.90;99.90;;;;;;4907080;29;20056;-71
2023/06/22 04:58:04;;;;;;;61.83;48.53;;;16.90;99.90;;;;;;4900788;29;20512;-71
2023/06/22 05:00:30;;;;;;;60.90;46.20;;;17.00;99.90;;;;;;4886763;29;20060;-71
2023/06/22 05:03:00;;;;;;;64.05;47.78;;;17.00;99.90;;;;;;4900777;29;20052;-71
2023/06/22 05:05:26;;;;;;;61.00;45.53;;;17.00;99.90;;;;;;4909549;29;20091;-71
2023/06/22 05:07:59;;;;;;;54.47;44.00;;;17.00;99.90;;;;;;4889314;29;20522;-71
2023/06/22 05:10:25;;;;;;;55.08;42.65;;;17.10;99.90;;;;;;4905662;29;20127;-71
2023/06/22 05:12:50;;;;;;;52.38;42.13;;;17.00;99.90;;;;;;4905632;29;20048;-71
2023/06/22 05:15:19;;;;;;;52.10;43.25;;;17.10;99.90;;;;;;4902829;29;20056;-70
2023/06/22 05:17:45;;;;;;;51.05;41.53;;;17.10;99.90;;;;;;4890275;29;20056;-71
2023/06/22 05:20:12;;;;;;;49.58;40.60;;;17.20;99.90;;;;;;4907785;29;20037;-70
2023/06/22 05:22:38;;;;;;;50.53;40.65;;;17.20;99.90;;;;;;4910937;29;20047;-71
2023/06/22 05:25:08;;;;;;;50.95;40.72;;;17.20;99.90;;;;;;4872724;29;20055;-71
2023/06/22 05:27:33;;;;;;;49.72;39.90;;;17.30;99.90;;;;;;4887370;29;20052;-71
2023/06/22 05:29:59;;;;;;;49.50;40.78;;;17.40;99.90;;;;;;4903763;29;20056;-71
2023/06/22 05:32:25;;;;;;;48.05;39.13;;;17.40;99.90;;;;;;4911022;29;20052;-71
2023/06/22 05:34:50;;;;;;;50.72;40.22;;;17.40;99.90;;;;;;4903631;29;20045;-71
2023/06/22 05:37:16;;;;;;;46.25;37.92;;;17.50;99.90;;;;;;4894202;29;20168;-71
2023/06/22 05:39:42;;;;;;;46.35;39.13;;;17.60;99.90;;;;;;4911312;29;20048;-71
2023/06/22 05:42:08;;;;;;;47.92;38.90;;;17.70;99.90;;;;;;4903438;29;20153;-71
2023/06/22 05:44:34;;;;;;;44.83;37.28;;;17.70;99.90;;;;;;4902813;29;20041;-71
2023/06/22 05:47:00;;;;;;;43.53;35.97;;;17.80;99.90;;;;;;4906187;29;20073;-70
2023/06/22 05:49:32;;;;;;;45.40;37.22;;;17.90;99.90;;;;;;4887101;29;20479;-70
2023/06/22 05:51:58;;;;;;;43.40;36.25;;;18.00;99.90;;;;;;4909453;29;20044;-71
2023/06/22 05:54:24;;;;;;;45.03;36.38;;;18.10;99.90;;;;;;4886206;29;20154;-71
2023/06/22 05:56:49;;;;;;;48.15;40.10;;;18.20;99.90;;;;;;4887403;29;20052;-71
2023/06/22 05:59:15;;;;;;;46.13;37.08;;;18.30;99.90;;;;;;4903401;29;20066;-71
2023/06/22 06:01:41;;;;;;;43.40;35.75;;;18.40;99.90;;;;;;4871891;29;20104;-71
2023/06/22 06:04:09;;;;;;;42.70;34.45;;;18.50;99.90;;;;;;4873393;29;20064;-71
2023/06/22 06:06:36;;;;;;;39.88;32.55;;;18.60;99.90;;;;;;4891801;29;20052;-71
2023/06/22 06:09:06;;;;;;;40.60;33.88;;;18.70;99.90;;;;;;4896462;29;20123;-71
2023/06/22 06:11:32;;;;;;;38.85;33.97;;;18.80;99.90;;;;;;4871985;29;20048;-71
2023/06/22 06:13:58;;;;;;;37.28;32.50;;;18.80;99.90;;;;;;4875643;29;20052;-71
2023/06/22 06:16:23;;;;;;;35.92;30.13;;;18.80;99.90;;;;;;4894620;29;20047;-71
2023/06/22 06:18:50;;;;;;;30.67;27.10;;;19.00;99.90;;;;;;4877471;29;20041;-72
2023/06/22 06:21:16;;;;;;;33.88;28.88;;;19.10;99.90;;;;;;4878221;29;20056;-71
2023/06/22 06:23:42;;;;;;;33.90;29.30;;;19.20;99.90;;;;;;4911584;29;20053;-72
2023/06/22 06:26:08;;;;;;;33.72;27.80;;;19.20;99.90;;;;;;4854656;29;20056;-72
2023/06/22 06:28:35;;;;;;;33.40;27.45;;;19.30;99.90;;;;;;4874296;29;20056;-72
2023/06/22 06:31:01;;;;;;;31.58;26.40;;;19.50;99.90;;;;;;4859719;29;20053;-72
2023/06/22 06:33:27;;;;;;;28.75;24.83;;;19.60;99.90;;;;;;4868525;29;20139;-71
2023/06/22 06:35:53;;;;;;;28.20;24.95;;;19.60;99.90;;;;;;4871453;29;20051;-71
2023/06/22 06:38:18;;;;;;;27.90;24.58;;;19.90;99.90;;;;;;4861572;29;20051;-72
2023/06/22 06:40:45;;;;;;;26.90;22.15;;;20.00;99.90;;;;;;4856187;29;20050;-71
2023/06/22 06:43:10;;;;;;;25.92;22.38;;;20.10;99.90;;;;;;4906560;29;20076;-69
2023/06/22 06:45:36;;;;;;;24.83;20.92;;;20.10;99.90;;;;;;4901092;29;20149;-71
2023/06/22 06:48:02;;;;;;;23.17;19.83;;;20.10;99.90;;;;;;4881667;29;20056;-70
2023/06/22 06:50:28;;;;;;;20.25;16.75;;;20.10;99.90;;;;;;4884799;29;20040;-71
2023/06/22 06:52:56;;;;;;;21.48;18.42;;;20.10;99.90;;;;;;4885577;29;20056;-72
2023/06/22 06:55:25;;;;;;;22.67;19.00;;;20.10;99.90;;;;;;4886016;29;20068;-74
2023/06/22 06:57:50;;;;;;;21.95;19.08;;;20.20;99.90;;;;;;4884512;29;20081;-70
2023/06/22 07:00:17;;;;;;;20.08;17.40;;;20.30;99.90;;;;;;4886330;29;20056;-71
2023/06/22 07:02:44;;;;;;;19.70;17.60;;;20.30;99.90;;;;;;4885152;29;20083;-71
2023/06/22 07:05:11;;;;;;;19.27;17.23;;;20.40;99.90;;;;;;4903619;29;20117;-71
2023/06/22 07:07:37;;;;;;;17.60;15.63;;;20.50;99.90;;;;;;4902208;29;20167;-71
2023/06/22 07:10:03;;;;;;;16.55;14.85;;;20.50;99.90;;;;;;4885046;29;20491;-71
2023/06/22 07:12:29;;;;;;;15.77;14.18;;;20.60;99.90;;;;;;4885591;29;20045;-71
2023/06/22 07:15:05;;;;;;;15.70;14.10;;;20.80;99.90;;;;;;4852489;29;20045;-71
2023/06/22 07:17:30;;;;;;;15.93;14.32;;;20.90;99.90;;;;;;4885645;29;20495;-72
2023/06/22 07:19:56;;;;;;;15.50;13.75;;;21.00;99.90;;;;;;4884897;29;20063;-71
2023/06/22 07:22:22;;;;;;;15.35;13.65;;;21.00;99.90;;;;;;4885061;29;20048;-71
2023/06/22 07:24:49;;;;;;;16.30;14.60;;;21.00;99.90;;;;;;4869674;29;20096;-71
2023/06/22 07:27:16;;;;;;;16.05;13.57;;;21.10;99.90;;;;;;4895298;29;20471;-71
2023/06/22 07:29:43;;;;;;;15.25;13.75;;;21.20;99.90;;;;;;4886376;29;20065;-72
2023/06/22 07:32:08;;;;;;;14.43;12.98;;;21.30;99.90;;;;;;4884111;29;20491;-71
2023/06/22 07:34:34;;;;;;;18.48;14.25;;;21.30;99.90;;;;;;4885004;29;20071;-71
2023/06/22 07:37:00;;;;;;;15.68;12.18;;;21.40;99.90;;;;;;4887291;29;20063;-71
2023/06/22 07:39:26;;;;;;;12.35;11.05;;;21.50;99.90;;;;;;4884538;29;20055;-71
2023/06/22 07:41:53;;;;;;;12.40;11.10;;;21.50;99.90;;;;;;4869019;29;20056;-71
2023/06/22 07:44:19;;;;;;;12.82;11.52;;;21.70;99.90;;;;;;4883622;29;20094;-71
2023/06/22 07:46:44;;;;;;;10.70;9.60;;;21.70;99.90;;;;;;4893092;29;20048;-71
2023/06/22 07:49:10;;;;;;;11.18;9.55;;;21.80;99.90;;;;;;4884239;29;20060;-71
2023/06/22 07:51:36;;;;;;;11.02;9.77;;;21.90;99.90;;;;;;4884840;29;20052;-71
2023/06/22 07:54:01;;;;;;;10.68;8.75;;;22.10;99.90;;;;;;4852683;29;20102;-71
2023/06/22 07:56:27;;;;;;;13.30;10.00;;;22.30;99.90;;;;;;4869253;29;20056;-71
2023/06/22 07:58:53;;;;;;;12.70;9.50;;;22.30;99.90;;;;;;4883983;29;20089;-72
2023/06/22 08:01:20;;;;;;;12.68;10.38;;;22.30;99.90;;;;;;4883460;29;20047;-71
2023/06/22 08:03:48;;;;;;;10.07;9.00;;;22.30;99.90;;;;;;4884616;29;20111;-72
2023/06/22 08:06:14;;;;;;;13.00;10.77;;;22.50;99.90;;;;;;4900823;29;20037;-71
2023/06/22 08:08:39;;;;;;;10.10;9.02;;;22.60;99.90;;;;;;4884319;29;20055;-71
2023/06/22 08:11:05;;;;;;;12.60;10.50;;;22.70;99.90;;;;;;4888044;29;20052;-71
2023/06/22 08:13:31;;;;;;;11.52;10.35;;;22.90;99.90;;;;;;4869329;29;20099;-71
2023/06/22 08:15:57;;;;;;;11.68;10.40;;;23.00;99.90;;;;;;4884008;29;20057;-72
2023/06/22 08:18:23;;;;;;;12.23;9.70;;;23.10;99.90;;;;;;4883431;29;20056;-71
2023/06/22 08:20:49;;;;;;;10.85;9.73;;;23.30;99.90;;;;;;4868651;29;20070;-71
2023/06/22 08:23:15;;;;;;;12.10;10.90;;;23.40;99.90;;;;;;4868241;29;20063;-71
2023/06/22 08:25:41;;;;;;;13.25;11.23;;;23.50;99.90;;;;;;4883501;29;20049;-71
2023/06/22 08:28:07;;;;;;;11.05;9.50;;;23.50;99.90;;;;;;4882669;29;20044;-71
2023/06/22 08:30:33;;;;;;;12.40;10.00;;;23.50;99.90;;;;;;4853474;29;20048;-71
2023/06/22 08:32:58;;;;;;;12.45;9.80;;;23.70;99.90;;;;;;4852936;29;20104;-71
2023/06/22 08:35:24;;;;;;;11.95;10.65;;;23.80;99.90;;;;;;4883374;29;20047;-71
2023/06/22 08:37:56;;;;;;;11.18;9.98;;;23.70;99.90;;;;;;4884142;29;20060;-70
2023/06/22 08:40:24;;;;;;;13.98;10.85;;;23.70;99.90;;;;;;4900025;29;20067;-72
2023/06/22 08:42:50;;;;;;;11.43;9.95;;;23.70;99.90;;;;;;4884038;29;20070;-71
2023/06/22 08:45:16;;;;;;;12.82;10.48;;;23.90;99.90;;;;;;4851657;29;20486;-71
2023/06/22 08:47:42;;;;;;;12.13;10.80;;;24.00;99.90;;;;;;4869028;29;20123;-71
2023/06/22 08:50:09;;;;;;;14.57;10.98;;;23.90;99.90;;;;;;4882861;29;20056;-71
2023/06/22 08:52:36;;;;;;;12.55;11.25;;;23.80;99.90;;;;;;4883785;29;20052;-71
2023/06/22 08:55:01;;;;;;;12.05;10.35;;;23.70;99.90;;;;;;4868576;29;20041;-71
2023/06/22 08:57:28;;;;;;;12.50;10.82;;;23.60;99.90;;;;;;4883006;29;20052;-71
2023/06/22 08:59:58;;;;;;;12.70;10.90;;;23.70;99.90;;;;;;4868922;29;20045;-72
2023/06/22 09:02:24;;;;;;;14.00;11.05;;;23.70;99.90;;;;;;4882870;29;20055;-72
2023/06/22 09:04:55;;;;;;;12.82;10.95;;;23.70;99.90;;;;;;4883769;29;20081;-72
2023/06/22 09:07:25;;;;;;;13.40;11.98;;;23.80;99.90;;;;;;4883275;29;20069;-71
2023/06/22 09:09:52;;;;;;;12.60;10.68;;;24.00;99.90;;;;;;4868163;29;20631;-72
2023/06/22 09:12:19;;;;;;;12.30;10.70;;;24.10;99.90;;;;;;4870006;29;20041;-72
2023/06/22 09:14:46;;;;;;;12.25;10.95;;;24.10;99.90;;;;;;4859014;29;20196;-72
2023/06/22 09:17:12;;;;;;;10.75;9.65;;;24.20;99.90;;;;;;4863658;29;20040;-72
2023/06/22 09:19:38;;;;;;;14.13;12.02;;;24.40;99.90;;;;;;4867703;29;20125;-72
2023/06/22 09:22:06;;;;;;;15.48;11.05;;;24.40;99.90;;;;;;4861107;29;20076;-72
2023/06/22 09:24:32;;;;;;;10.65;9.55;;;24.50;99.90;;;;;;4857700;29;20121;-71
2023/06/22 09:26:58;;;;;;;11.85;10.23;;;24.60;99.90;;;;;;4868817;29;20056;-71
2023/06/22 09:29:23;;;;;;;11.82;10.57;;;24.70;99.90;;;;;;4886980;29;20036;-72
2023/06/22 09:31:49;;;;;;;13.30;10.35;;;24.50;99.90;;;;;;4885524;29;20076;-72
2023/06/22 09:34:20;;;;;;;11.93;10.73;;;24.50;99.90;;;;;;4853360;29;20514;-72
2023/06/22 09:36:48;;;;;;;12.35;11.02;;;24.50;99.90;;;;;;4868272;29;20045;-71
2023/06/22 09:39:14;;;;;;;13.35;10.32;;;24.60;99.90;;;;;;4868301;29;20108;-72
2023/06/22 09:41:40;;;;;;;12.30;10.43;;;24.80;99.90;;;;;;4882852;29;20083;-72
2023/06/22 09:44:06;;;;;;;10.98;9.60;;;25.00;99.90;;;;;;4867802;29;20410;-71
2023/06/22 09:46:32;;;;;;;12.20;9.60;;;25.10;99.90;;;;;;4861851;29;20112;-72
2023/06/22 09:48:57;;;;;;;13.98;10.30;;;25.20;99.90;;;;;;4848988;29;20055;-71
2023/06/22 09:51:24;;;;;;;14.05;11.75;;;25.20;99.90;;;;;;4868097;29;20049;-72
2023/06/22 09:53:50;;;;;;;13.57;11.57;;;25.10;99.90;;;;;;4850997;29;20077;-72
2023/06/22 09:56:16;;;;;;;12.55;11.25;;;25.00;99.90;;;;;;4864418;29;20550;-72
2023/06/22 09:58:42;;;;;;;10.93;9.82;;;25.10;99.90;;;;;;4870715;29;20116;-71
2023/06/22 10:01:09;;;;;;;12.50;11.05;;;25.00;99.90;;;;;;4871222;29;20045;-72
2023/06/22 10:03:35;;;;;;;14.02;12.38;;;25.30;99.90;;;;;;4892943;29;20534;-72
2023/06/22 10:06:01;;;;;;;13.38;11.30;;;25.30;99.90;;;;;;4855101;29;20052;-72
2023/06/22 10:08:27;;;;;;;14.23;11.57;;;25.30;99.90;;;;;;4871035;29;20049;-71
2023/06/22 10:10:52;;;;;;;14.55;11.82;;;25.50;99.90;;;;;;4870241;29;20052;-72
2023/06/22 10:13:18;;;;;;;12.15;10.65;;;25.30;99.90;;;;;;4870950;29;20049;-71
2023/06/22 10:15:49;;;;;;;14.77;13.27;;;25.30;99.90;;;;;;4885805;29;20057;-72
2023/06/22 10:18:16;;;;;;;13.75;12.32;;;25.40;99.90;;;;;;4871089;29;20111;-72
2023/06/22 10:20:42;;;;;;;15.07;12.77;;;25.50;99.90;;;;;;4888341;29;20080;-71
2023/06/22 10:23:08;;;;;;;12.05;10.75;;;25.70;99.90;;;;;;4870322;29;20049;-72
2023/06/22 10:25:33;;;;;;;14.80;12.80;;;25.70;99.90;;;;;;4871025;29;20487;-72
2023/06/22 10:27:59;;;;;;;13.57;11.38;;;25.70;99.90;;;;;;4870327;29;20135;-72
2023/06/22 10:30:25;;;;;;;14.77;11.23;;;25.50;99.90;;;;;;4889895;29;20049;-73
2023/06/22 10:32:50;;;;;;;14.52;12.45;;;25.40;99.90;;;;;;4869914;29;20192;-73
2023/06/22 10:35:16;;;;;;;12.75;10.45;;;25.40;99.90;;;;;;4853507;29;20528;-73
2023/06/22 10:37:46;;;;;;;11.07;9.68;;;25.50;99.90;;;;;;4870844;29;20045;-72
2023/06/22 10:40:13;;;;;;;10.65;9.63;;;25.50;99.90;;;;;;4869576;29;20534;-72
2023/06/22 10:42:39;;;;;;;12.52;10.60;;;25.70;99.90;;;;;;4870345;29;20049;-73
2023/06/22 10:45:06;;;;;;;12.70;10.73;;;25.90;99.90;;;;;;4871745;29;20095;-73
2023/06/22 10:47:31;;;;;;;11.13;9.80;;;26.00;99.90;;;;;;4855499;29;20083;-73
2023/06/22 10:49:57;;;;;;;12.68;11.10;;;25.90;99.90;;;;;;4870305;29;20064;-73
2023/06/22 10:52:23;;;;;;;11.07;8.75;;;25.70;99.90;;;;;;4856322;29;20045;-73
2023/06/22 10:54:49;;;;;;;11.95;9.07;;;25.90;99.90;;;;;;4870687;29;20056;-72
2023/06/22 10:57:15;;;;;;;12.48;10.27;;;26.10;99.90;;;;;;4869284;29;20060;-72
2023/06/22 10:59:40;;;;;;;10.75;9.50;;;26.20;99.90;;;;;;4884848;29;20056;-72
2023/06/22 11:02:06;;;;;;;11.98;10.80;;;26.10;99.90;;;;;;4884074;29;20049;-72
2023/06/22 11:04:32;;;;;;;11.60;9.35;;;26.10;99.90;;;;;;4854632;29;20076;-72
2023/06/22 11:06:57;;;;;;;11.95;10.32;;;26.00;99.90;;;;;;4853007;29;20049;-72
2023/06/22 11:09:23;;;;;;;12.65;11.20;;;25.90;99.90;;;;;;4854354;29;20063;-72
2023/06/22 11:11:53;;;;;;;11.95;10.73;;;26.00;99.90;;;;;;4902382;29;20135;-71
2023/06/22 11:14:19;;;;;;;11.63;9.85;;;26.10;99.90;;;;;;4870297;29;20041;-72
2023/06/22 11:16:46;;;;;;;12.55;10.82;;;26.10;99.90;;;;;;4869572;29;20127;-72
2023/06/22 11:19:12;;;;;;;10.20;8.57;;;26.10;99.90;;;;;;4858028;29;20606;-72
2023/06/22 11:21:38;;;;;;;10.43;9.40;;;26.10;99.90;;;;;;4876448;29;20053;-72
2023/06/22 11:24:04;;;;;;;9.95;8.98;;;26.20;99.90;;;;;;4867901;29;20045;-72
2023/06/22 11:26:31;;;;;;;12.50;11.30;;;26.20;99.90;;;;;;4852737;29;20109;-72
2023/06/22 11:28:57;;;;;;;10.85;9.68;;;26.10;99.90;;;;;;4867798;29;20059;-72
2023/06/22 11:31:24;;;;;;;12.32;11.02;;;26.00;99.90;;;;;;4883648;29;20064;-72
2023/06/22 11:33:49;;;;;;;12.30;10.95;;;25.90;99.90;;;;;;4851999;29;20076;-72
2023/06/22 11:36:15;;;;;;;12.15;10.40;;;25.90;99.90;;;;;;4853400;29;20772;-72
2023/06/22 11:38:42;;;;;;;10.10;9.10;;;25.90;99.90;;;;;;4869181;29;20056;-72
2023/06/22 11:41:08;;;;;;;12.48;10.30;;;25.90;99.90;;;;;;4868707;29;20044;-72
2023/06/22 11:43:34;;;;;;;11.65;10.13;;;25.90;99.90;;;;;;4854336;29;20064;-72
2023/06/22 11:46:02;;;;;;;9.77;8.77;;;25.80;99.90;;;;;;4902012;29;20414;-72
2023/06/22 11:48:27;;;;;;;12.02;9.48;;;25.70;99.90;;;;;;4869106;29;20048;-71
2023/06/22 11:50:54;;;;;;;9.45;8.55;;;25.60;99.90;;;;;;4854242;29;20051;-72
2023/06/22 11:53:21;;;;;;;10.32;8.32;;;25.60;99.90;;;;;;4841592;29;20036;-72
2023/06/22 11:55:47;;;;;;;10.75;9.65;;;25.60;99.90;;;;;;4856576;29;20052;-72
2023/06/22 11:58:13;;;;;;;9.00;8.07;;;25.60;99.90;;;;;;4868253;29;20040;-72
2023/06/22 12:00:39;;;;;;;9.98;8.18;;;25.50;99.90;;;;;;4853825;29;20188;-72
2023/06/22 12:03:04;;;;;;;9.75;8.75;;;25.50;99.90;;;;;;4835140;29;20523;-72
2023/06/22 12:05:30;;;;;;;10.38;8.70;;;25.40;99.90;;;;;;4866569;29;20057;-72
2023/06/22 12:07:56;;;;;;;11.02;9.55;;;25.40;99.90;;;;;;4838835;29;20048;-72
2023/06/22 12:10:22;;;;;;;11.80;9.30;;;25.30;99.90;;;;;;4866996;29;20095;-72
2023/06/22 12:12:48;;;;;;;13.63;9.25;;;25.30;99.90;;;;;;4869328;29;20045;-72
2023/06/22 12:15:14;;;;;;;9.95;8.65;;;25.30;99.90;;;;;;4867573;29;20048;-72
2023/06/22 12:17:40;;;;;;;8.15;7.18;;;25.30;99.90;;;;;;4877439;29;20048;-72
2023/06/22 12:20:07;;;;;;;14.20;8.80;;;25.30;99.90;;;;;;4867236;29;20075;-72
2023/06/22 12:22:34;;;;;;;12.43;8.25;;;25.30;99.90;;;;;;4883023;29;20044;-72
2023/06/22 12:25:00;;;;;;;7.97;7.15;;;25.30;99.90;;;;;;4853634;29;20053;-72
2023/06/22 12:27:26;;;;;;;8.75;7.85;;;25.20;99.90;;;;;;4868315;29;20052;-73